Terminal Aerodrome Forecast
Issued by NWS

Home | Current Version | Previous Version | Graphics & Text | Print | Product List | Glossary On
Versions: 1 2 3 4 5 6 7 8 9 10 11 12 13 14 15 16 17 18 19 20 21 22 23 24 25 26 27
000
FTUS43 KGRB 151140
TAFAUW
TAF
KAUW 151140Z 1512/1612 29007KT P6SM -SHSN OVC017
     FM151800 28008G15KT P6SM -SHSN BKN030
     FM152100 28005KT P6SM BKN035
     FM160500 VRB03KT 3SM -SN BKN027
     FM161000 09008KT 2SM -SN SCT009 OVC019=

USA.gov is the U.S. government's official web portal to all federal, state and local government web resources and services.